Time;durP1;ratioP1;P1;durP2;ratioP2;P2;SDS_P1;SDS_P2;PMS_P1;PMS_P2;Temp;Humidity;BMP_temperature;BMP_pressure;BME280_temperature;BME280_humidity;BME280_pressure;Samples;Min_cycle;Max_cycle;Signal;HPM_P1;HPM_P2
2022/10/23 00:01:21;;;;;;;6.28;3.20;;;;;;;;;;4998331;28;20022;-87
2022/10/23 00:03:51;;;;;;;13.13;3.67;;;;;;;;;;4996976;28;20033;-87
2022/10/23 00:09:38;;;;;;;5.83;3.20;;;;;;;;;;4991709;28;20082;-87
2022/10/23 00:12:03;;;;;;;5.50;4.30;;;;;;;;;;4999688;28;20030;-87
2022/10/23 00:14:54;;;;;;;10.82;4.03;;;;;;;;;;4981648;28;20034;-88
2022/10/23 00:17:19;;;;;;;7.72;3.05;;;;;;;;;;5001089;28;20212;-88
2022/10/23 00:19:45;;;;;;;8.32;3.28;;;;;;;;;;5010215;28;20594;-88
2022/10/23 00:22:10;;;;;;;7.43;3.60;;;;;;;;;;5002237;28;20034;-87
2022/10/23 00:24:35;;;;;;;6.90;3.05;;;;;;;;;;5003093;28;20029;-88
2022/10/23 00:27:01;;;;;;;9.40;2.97;;;;;;;;;;5018026;28;20084;-87
2022/10/23 00:29:27;;;;;;;19.80;4.00;;;;;;;;;;5012927;28;20534;-87
2022/10/23 00:31:52;;;;;;;6.72;3.33;;;;;;;;;;5013649;28;20095;-87
2022/10/23 00:34:18;;;;;;;3.75;2.90;;;;;;;;;;5012879;28;20468;-87
2022/10/23 00:36:46;;;;;;;4.68;2.75;;;;;;;;;;5011749;28;20029;-87
2022/10/23 00:39:11;;;;;;;5.38;3.15;;;;;;;;;;5014470;28;20053;-87
2022/10/23 00:41:37;;;;;;;17.85;3.80;;;;;;;;;;5013329;28;20042;-87
2022/10/23 00:44:17;;;;;;;7.22;2.92;;;;;;;;;;5010423;28;20077;-87
2022/10/23 00:46:43;;;;;;;6.18;3.25;;;;;;;;;;5013317;28;20030;-87
2022/10/23 00:49:09;;;;;;;9.77;3.17;;;;;;;;;;5011004;28;20022;-87
2022/10/23 00:51:39;;;;;;;8.48;3.38;;;;;;;;;;5003879;28;20022;-87
2022/10/23 00:54:05;;;;;;;6.40;3.38;;;;;;;;;;5013844;28;20026;-88
2022/10/23 00:56:34;;;;;;;8.32;3.55;;;;;;;;;;5006440;28;20431;-87
2022/10/23 00:58:59;;;;;;;9.93;3.50;;;;;;;;;;5006224;28;20030;-87
2022/10/23 01:01:25;;;;;;;11.60;3.70;;;;;;;;;;4996937;28;21356;-88
2022/10/23 01:03:51;;;;;;;7.05;3.47;;;;;;;;;;5002136;28;20018;-87
2022/10/23 01:06:36;;;;;;;7.68;3.58;;;;;;;;;;5000428;28;20026;-87
2022/10/23 01:09:06;;;;;;;7.18;3.58;;;;;;;;;;5001648;28;20106;-88
2022/10/23 01:11:41;;;;;;;8.65;3.13;;;;;;;;;;5005026;28;20025;-88
2022/10/23 01:14:30;;;;;;;13.05;3.97;;;;;;;;;;5002902;28;20038;-87
2022/10/23 01:17:01;;;;;;;5.03;3.05;;;;;;;;;;5004285;28;20040;-87
2022/10/23 01:19:35;;;;;;;6.43;3.20;;;;;;;;;;5003120;28;20475;-87
2022/10/23 01:22:16;;;;;;;12.00;3.33;;;;;;;;;;5006413;28;20112;-88
2022/10/23 01:24:53;;;;;;;8.73;3.70;;;;;;;;;;5015897;28;20029;-87
2022/10/23 01:27:22;;;;;;;10.57;4.07;;;;;;;;;;5010372;28;20033;-88
2022/10/23 01:30:10;;;;;;;8.52;3.78;;;;;;;;;;5004206;28;20029;-89
2022/10/23 01:33:08;;;;;;;12.10;4.00;;;;;;;;;;5002322;28;20025;-88
2022/10/23 01:35:38;;;;;;;4.55;3.08;;;;;;;;;;4998414;28;20237;-89
2022/10/23 01:38:11;;;;;;;8.32;3.38;;;;;;;;;;5002215;28;20054;-89
2022/10/23 01:40:44;;;;;;;5.97;3.38;;;;;;;;;;5005460;28;20383;-89
2022/10/23 01:43:15;;;;;;;24.60;4.07;;;;;;;;;;5001690;28;20053;-89
2022/10/23 01:45:49;;;;;;;14.43;3.38;;;;;;;;;;4999198;28;20050;-90
2022/10/23 01:48:22;;;;;;;8.80;3.08;;;;;;;;;;4997863;28;21159;-89
2022/10/23 01:50:49;;;;;;;4.28;2.85;;;;;;;;;;4996245;28;20022;-89
2022/10/23 01:53:16;;;;;;;7.50;3.45;;;;;;;;;;4999642;28;20022;-89
2022/10/23 01:55:42;;;;;;;6.30;3.15;;;;;;;;;;4993632;28;20037;-89
2022/10/23 01:58:09;;;;;;;5.10;3.00;;;;;;;;;;5001960;28;20038;-89
2022/10/23 02:00:38;;;;;;;11.00;3.70;;;;;;;;;;4998103;28;20487;-89
2022/10/23 02:03:06;;;;;;;10.55;3.22;;;;;;;;;;4997024;28;20030;-89
2022/10/23 02:05:31;;;;;;;13.15;3.47;;;;;;;;;;5004629;28;20057;-89
2022/10/23 02:07:57;;;;;;;5.28;3.55;;;;;;;;;;4999608;28;20503;-90
2022/10/23 02:10:41;;;;;;;8.05;3.70;;;;;;;;;;5003895;28;20022;-90
2022/10/23 02:13:12;;;;;;;7.78;4.07;;;;;;;;;;5002843;28;20664;-90
2022/10/23 02:15:49;;;;;;;7.22;3.65;;;;;;;;;;5034744;28;20047;-89
2022/10/23 02:18:33;;;;;;;8.55;3.17;;;;;;;;;;5019522;28;20022;-90
2022/10/23 02:21:09;;;;;;;5.43;2.95;;;;;;;;;;5036154;28;20060;-90
2022/10/23 02:23:59;;;;;;;6.03;3.25;;;;;;;;;;5021053;28;19999;-90
2022/10/23 02:26:42;;;;;;;12.70;3.33;;;;;;;;;;5022943;28;20025;-90
2022/10/23 02:29:33;;;;;;;7.38;2.88;;;;;;;;;;5009882;28;20383;-89
2022/10/23 02:32:00;;;;;;;9.18;3.40;;;;;;;;;;5000750;28;20077;-90
2022/10/23 02:34:26;;;;;;;5.53;2.80;;;;;;;;;;4999860;28;20038;-89
2022/10/23 02:36:51;;;;;;;9.00;3.75;;;;;;;;;;5000199;28;20032;-90
2022/10/23 02:39:16;;;;;;;7.18;3.30;;;;;;;;;;5001038;28;20113;-90
2022/10/23 02:41:51;;;;;;;6.63;3.50;;;;;;;;;;4997030;28;20104;-90
2022/10/23 02:44:38;;;;;;;11.38;2.97;;;;;;;;;;4998786;28;20030;-90
2022/10/23 02:47:09;;;;;;;7.72;3.00;;;;;;;;;;5000470;28;20030;-90
2022/10/23 02:49:46;;;;;;;8.93;3.75;;;;;;;;;;5000748;28;20108;-90
2022/10/23 02:52:15;;;;;;;3.25;2.70;;;;;;;;;;5010011;28;20025;-90
2022/10/23 02:55:09;;;;;;;5.28;3.13;;;;;;;;;;5012504;28;20391;-90
2022/10/23 02:57:41;;;;;;;4.63;3.10;;;;;;;;;;5006998;28;20025;-90
2022/10/23 03:00:16;;;;;;;5.15;3.55;;;;;;;;;;5020305;28;20036;-89
2022/10/23 03:02:52;;;;;;;6.63;4.13;;;;;;;;;;5004236;28;20076;-89
2022/10/23 03:05:34;;;;;;;3.80;2.65;;;;;;;;;;5003074;28;20072;-88
2022/10/23 03:08:03;;;;;;;7.55;3.10;;;;;;;;;;5003957;28;20072;-90
2022/10/23 03:10:29;;;;;;;8.13;3.42;;;;;;;;;;5003524;28;20021;-89
2022/10/23 03:12:54;;;;;;;6.63;3.50;;;;;;;;;;5003841;28;20384;-89
2022/10/23 03:15:19;;;;;;;6.00;2.97;;;;;;;;;;4998161;28;20050;-89
2022/10/23 03:17:45;;;;;;;6.68;3.15;;;;;;;;;;5000917;28;20062;-90
2022/10/23 03:20:10;;;;;;;7.90;3.72;;;;;;;;;;4999252;28;20026;-90
2022/10/23 03:22:36;;;;;;;6.00;3.45;;;;;;;;;;4999285;28;20053;-89
2022/10/23 03:25:02;;;;;;;4.72;3.05;;;;;;;;;;4998929;28;20033;-87
2022/10/23 03:27:27;;;;;;;4.75;2.92;;;;;;;;;;5001409;28;20030;-88
2022/10/23 03:29:53;;;;;;;5.13;3.08;;;;;;;;;;5008044;28;20427;-87
2022/10/23 03:32:18;;;;;;;9.20;2.88;;;;;;;;;;5007487;28;20136;-88
2022/10/23 03:34:43;;;;;;;6.45;2.80;;;;;;;;;;5008672;28;20029;-89
2022/10/23 03:37:09;;;;;;;6.65;3.33;;;;;;;;;;5010857;28;20049;-87
2022/10/23 03:39:34;;;;;;;9.50;3.80;;;;;;;;;;5012027;28;20030;-86
2022/10/23 03:41:59;;;;;;;5.18;3.05;;;;;;;;;;5001733;28;20034;-87
2022/10/23 03:44:25;;;;;;;5.15;3.03;;;;;;;;;;5010279;28;20032;-87
2022/10/23 03:46:50;;;;;;;8.52;3.10;;;;;;;;;;5011910;28;20026;-87
2022/10/23 03:49:15;;;;;;;5.90;3.03;;;;;;;;;;5011762;28;20100;-86
2022/10/23 03:51:42;;;;;;;5.90;3.60;;;;;;;;;;5005553;28;20054;-86
2022/10/23 03:54:08;;;;;;;3.95;2.95;;;;;;;;;;5011817;28;20033;-88
2022/10/23 03:56:34;;;;;;;4.53;2.97;;;;;;;;;;5006805;28;20545;-88
2022/10/23 03:58:59;;;;;;;6.90;3.20;;;;;;;;;;5000145;28;20037;-88
2022/10/23 04:01:25;;;;;;;5.85;3.08;;;;;;;;;;5001540;28;20499;-88
2022/10/23 04:03:50;;;;;;;21.25;3.60;;;;;;;;;;4998971;28;20030;-88
2022/10/23 04:06:16;;;;;;;6.85;3.15;;;;;;;;;;4998288;28;20017;-88
2022/10/23 04:08:43;;;;;;;4.68;2.78;;;;;;;;;;4999317;28;20117;-89
2022/10/23 04:11:08;;;;;;;7.43;3.25;;;;;;;;;;4998221;28;20029;-88
2022/10/23 04:13:34;;;;;;;6.38;3.22;;;;;;;;;;4999814;28;20018;-89
2022/10/23 04:15:59;;;;;;;4.10;2.70;;;;;;;;;;5000330;28;20030;-90
2022/10/23 04:18:25;;;;;;;4.35;2.97;;;;;;;;;;4998534;28;20033;-88
2022/10/23 04:20:50;;;;;;;6.60;3.20;;;;;;;;;;4998389;28;20026;-88
2022/10/23 04:23:16;;;;;;;7.65;3.25;;;;;;;;;;5000214;28;20028;-88
2022/10/23 04:25:42;;;;;;;5.85;3.20;;;;;;;;;;4997989;28;20022;-88
2022/10/23 04:28:07;;;;;;;6.30;2.97;;;;;;;;;;5004119;28;20530;-90
2022/10/23 04:30:33;;;;;;;6.43;2.67;;;;;;;;;;5005826;28;20081;-88
2022/10/23 04:32:58;;;;;;;9.48;2.83;;;;;;;;;;5003449;28;20778;-88
2022/10/23 04:35:24;;;;;;;10.45;2.78;;;;;;;;;;5006677;28;20028;-88
2022/10/23 04:37:49;;;;;;;4.95;2.92;;;;;;;;;;5002463;28;20044;-88
2022/10/23 04:40:14;;;;;;;2.95;2.50;;;;;;;;;;5007980;28;20746;-89
2022/10/23 04:42:40;;;;;;;13.10;2.72;;;;;;;;;;5002826;28;20036;-87
2022/10/23 04:45:06;;;;;;;8.18;2.97;;;;;;;;;;5009182;28;20475;-88
2022/10/23 04:47:31;;;;;;;5.75;2.63;;;;;;;;;;5004850;28;20077;-88
2022/10/23 04:49:56;;;;;;;5.97;2.80;;;;;;;;;;5010749;28;20026;-88
2022/10/23 04:52:22;;;;;;;4.55;2.75;;;;;;;;;;5006341;28;20033;-89
2022/10/23 04:54:47;;;;;;;3.75;2.80;;;;;;;;;;5009648;28;20026;-88
2022/10/23 04:57:13;;;;;;;5.05;2.72;;;;;;;;;;5008621;28;21196;-88
2022/10/23 04:59:38;;;;;;;3.60;2.60;;;;;;;;;;5014722;28;20017;-88
2022/10/23 05:02:04;;;;;;;6.07;2.88;;;;;;;;;;5018666;28;20030;-87
2022/10/23 05:04:29;;;;;;;4.57;2.60;;;;;;;;;;5014334;28;20046;-88
2022/10/23 05:06:54;;;;;;;9.00;2.70;;;;;;;;;;5006560;28;20149;-88
2022/10/23 05:09:21;;;;;;;5.03;2.72;;;;;;;;;;5010245;28;20116;-88
2022/10/23 05:11:46;;;;;;;5.25;2.63;;;;;;;;;;5007470;28;20024;-87
2022/10/23 05:14:12;;;;;;;7.00;3.15;;;;;;;;;;5003510;28;20029;-87
2022/10/23 05:16:43;;;;;;;8.25;3.20;;;;;;;;;;5003768;28;20057;-88
2022/10/23 05:19:12;;;;;;;4.55;3.08;;;;;;;;;;5007380;28;20041;-87
2022/10/23 05:21:38;;;;;;;8.55;3.55;;;;;;;;;;5002423;28;20037;-88
2022/10/23 05:24:04;;;;;;;5.40;2.88;;;;;;;;;;5000929;28;20084;-89
2022/10/23 05:26:32;;;;;;;4.45;2.53;;;;;;;;;;5001215;28;20280;-87
2022/10/23 05:28:57;;;;;;;9.50;3.00;;;;;;;;;;4999151;28;20026;-88
2022/10/23 05:31:24;;;;;;;5.03;2.78;;;;;;;;;;5002710;28;20033;-88
2022/10/23 05:33:51;;;;;;;3.97;2.67;;;;;;;;;;5002301;28;20030;-88
2022/10/23 05:36:17;;;;;;;9.98;3.28;;;;;;;;;;5016184;28;20028;-88
2022/10/23 05:38:42;;;;;;;3.67;3.00;;;;;;;;;;5011845;28;20022;-87
2022/10/23 05:41:07;;;;;;;3.80;2.70;;;;;;;;;;5004116;28;20030;-86
2022/10/23 05:43:33;;;;;;;6.97;3.40;;;;;;;;;;5005431;28;20030;-88
2022/10/23 05:45:58;;;;;;;6.05;2.83;;;;;;;;;;5009309;28;20049;-87
2022/10/23 05:48:24;;;;;;;5.18;3.10;;;;;;;;;;5007346;28;20029;-88
2022/10/23 05:50:49;;;;;;;3.70;2.80;;;;;;;;;;5011649;28;20392;-88
2022/10/23 05:53:15;;;;;;;5.10;3.10;;;;;;;;;;5022876;28;20017;-88
2022/10/23 05:55:40;;;;;;;4.78;2.97;;;;;;;;;;5017730;28;20105;-88
2022/10/23 05:58:06;;;;;;;3.10;2.50;;;;;;;;;;5003176;28;20065;-88
2022/10/23 06:00:34;;;;;;;8.18;2.45;;;;;;;;;;4999752;28;20034;-88
2022/10/23 06:03:00;;;;;;;2.85;2.50;;;;;;;;;;5000806;28;20049;-88
2022/10/23 06:05:25;;;;;;;5.15;3.00;;;;;;;;;;5005681;28;20080;-87
2022/10/23 06:07:50;;;;;;;15.25;3.47;;;;;;;;;;5010642;28;20022;-87
2022/10/23 06:10:21;;;;;;;4.05;2.40;;;;;;;;;;5019655;28;20042;-88
2022/10/23 06:12:46;;;;;;;3.72;2.38;;;;;;;;;;5023714;28;20088;-88
2022/10/23 06:15:12;;;;;;;4.00;2.40;;;;;;;;;;5008867;28;20026;-88
2022/10/23 06:17:37;;;;;;;8.07;2.70;;;;;;;;;;5001411;28;21274;-87
2022/10/23 06:20:03;;;;;;;2.78;2.30;;;;;;;;;;5003824;28;20077;-87
2022/10/23 06:22:28;;;;;;;5.45;2.85;;;;;;;;;;4999283;28;20053;-88
2022/10/23 06:24:54;;;;;;;4.07;2.28;;;;;;;;;;5001393;28;20073;-87
2022/10/23 06:27:19;;;;;;;6.55;2.60;;;;;;;;;;5006665;28;20048;-88
2022/10/23 06:29:44;;;;;;;3.97;2.25;;;;;;;;;;5012963;28;20042;-89
2022/10/23 06:32:10;;;;;;;5.80;2.83;;;;;;;;;;5020152;28;20041;-87
2022/10/23 06:34:35;;;;;;;3.97;2.60;;;;;;;;;;5026269;28;20018;-88
2022/10/23 06:37:00;;;;;;;3.00;2.40;;;;;;;;;;5031882;28;20025;-88
2022/10/23 06:39:26;;;;;;;8.77;2.53;;;;;;;;;;5019084;28;20030;-87
2022/10/23 06:41:51;;;;;;;3.13;2.65;;;;;;;;;;5007960;28;20018;-87
2022/10/23 06:44:17;;;;;;;4.45;2.72;;;;;;;;;;5011641;28;20029;-87
2022/10/23 06:46:45;;;;;;;4.45;2.60;;;;;;;;;;5009532;28;21099;-87
2022/10/23 06:49:14;;;;;;;3.97;2.53;;;;;;;;;;5013187;28;20021;-88
2022/10/23 06:51:40;;;;;;;4.45;3.00;;;;;;;;;;5010425;28;20403;-88
2022/10/23 06:54:06;;;;;;;3.13;2.25;;;;;;;;;;5004627;28;20109;-88
2022/10/23 06:56:33;;;;;;;5.47;2.60;;;;;;;;;;5008842;28;20105;-89
2022/10/23 06:59:00;;;;;;;3.67;2.17;;;;;;;;;;5002370;28;20037;-88
2022/10/23 07:01:25;;;;;;;4.57;2.50;;;;;;;;;;5000813;28;20028;-88
2022/10/23 07:03:50;;;;;;;3.13;2.28;;;;;;;;;;5003652;28;20116;-87
2022/10/23 07:06:16;;;;;;;6.25;2.10;;;;;;;;;;5005569;28;20045;-88
2022/10/23 07:08:41;;;;;;;2.88;2.40;;;;;;;;;;5005612;28;20050;-86
2022/10/23 07:11:09;;;;;;;3.20;2.50;;;;;;;;;;5013459;28;20061;-87
2022/10/23 07:13:37;;;;;;;7.40;2.55;;;;;;;;;;5011933;28;20030;-89
2022/10/23 07:16:14;;;;;;;9.20;2.05;;;;;;;;;;5020252;28;20010;-87
2022/10/23 07:18:39;;;;;;;7.10;2.50;;;;;;;;;;5017268;28;20014;-88
2022/10/23 07:21:05;;;;;;;8.95;2.30;;;;;;;;;;5010375;28;20100;-87
2022/10/23 07:23:30;;;;;;;3.65;2.17;;;;;;;;;;5012857;28;20098;-86
2022/10/23 07:26:05;;;;;;;3.72;2.60;;;;;;;;;;5003795;28;20511;-86
2022/10/23 07:28:30;;;;;;;6.97;2.45;;;;;;;;;;5005657;28;20470;-87
2022/10/23 07:30:57;;;;;;;6.65;2.47;;;;;;;;;;4999805;28;20541;-87
2022/10/23 07:33:23;;;;;;;6.75;2.80;;;;;;;;;;5005529;28;20041;-87
2022/10/23 07:35:48;;;;;;;6.50;2.58;;;;;;;;;;5001442;28;20033;-87
2022/10/23 07:38:14;;;;;;;3.20;2.17;;;;;;;;;;5008880;28;20026;-87
2022/10/23 07:40:39;;;;;;;7.13;2.40;;;;;;;;;;5017937;28;20077;-87
2022/10/23 07:43:05;;;;;;;5.20;2.95;;;;;;;;;;5011640;28;20080;-88
2022/10/23 07:45:30;;;;;;;5.93;2.72;;;;;;;;;;5004012;28;20042;-88
2022/10/23 07:47:55;;;;;;;7.50;2.78;;;;;;;;;;4999465;28;20045;-87
2022/10/23 07:50:21;;;;;;;3.72;2.30;;;;;;;;;;5001209;28;20974;-88
2022/10/23 07:52:46;;;;;;;5.32;2.67;;;;;;;;;;5006832;28;20487;-87
2022/10/23 07:55:12;;;;;;;4.97;2.05;;;;;;;;;;5001795;28;20026;-87
2022/10/23 07:57:38;;;;;;;3.85;2.17;;;;;;;;;;5002955;28;20076;-88
2022/10/23 08:00:05;;;;;;;7.90;2.42;;;;;;;;;;5007295;28;20025;-87
2022/10/23 08:02:32;;;;;;;7.18;2.17;;;;;;;;;;5005499;28;20038;-88
2022/10/23 08:04:58;;;;;;;7.90;2.75;;;;;;;;;;5002028;28;20058;-89
2022/10/23 08:07:23;;;;;;;2.90;2.13;;;;;;;;;;4998953;28;20069;-88
2022/10/23 08:09:48;;;;;;;3.97;2.00;;;;;;;;;;5002976;28;20053;-87
2022/10/23 08:12:14;;;;;;;2.80;1.90;;;;;;;;;;5000690;28;20041;-88
2022/10/23 08:14:39;;;;;;;4.47;2.03;;;;;;;;;;5006976;28;20030;-88
2022/10/23 08:17:08;;;;;;;2.17;1.80;;;;;;;;;;5004464;28;20056;-88
2022/10/23 08:19:34;;;;;;;7.97;2.20;;;;;;;;;;5016472;28;20382;-87
2022/10/23 08:21:59;;;;;;;4.63;1.90;;;;;;;;;;5003300;28;20479;-87
2022/10/23 08:24:24;;;;;;;3.33;2.25;;;;;;;;;;4999860;28;20384;-86
2022/10/23 08:26:50;;;;;;;6.72;2.05;;;;;;;;;;4995570;28;20034;-87
2022/10/23 08:29:15;;;;;;;5.85;2.50;;;;;;;;;;5002269;28;20028;-89
2022/10/23 08:31:41;;;;;;;4.68;2.08;;;;;;;;;;5001680;28;20025;-88
2022/10/23 08:34:06;;;;;;;3.33;2.20;;;;;;;;;;5003438;28;20053;-89
2022/10/23 08:36:32;;;;;;;3.13;2.00;;;;;;;;;;5012406;28;20460;-88
2022/10/23 08:38:58;;;;;;;3.22;2.00;;;;;;;;;;5012666;28;20026;-87
2022/10/23 08:41:34;;;;;;;3.35;1.60;;;;;;;;;;5013207;28;20636;-87
2022/10/23 08:44:00;;;;;;;2.95;1.98;;;;;;;;;;5009572;28;20034;-87
2022/10/23 08:46:30;;;;;;;2.97;1.90;;;;;;;;;;5008236;28;20027;-88
2022/10/23 08:49:16;;;;;;;4.85;1.90;;;;;;;;;;5021888;28;20028;-86
2022/10/23 08:51:48;;;;;;;4.30;2.10;;;;;;;;;;5013198;28;20037;-86
2022/10/23 08:54:20;;;;;;;1.92;1.63;;;;;;;;;;5016331;28;20022;-87
2022/10/23 08:56:50;;;;;;;1.58;1.48;;;;;;;;;;5016326;28;20032;-88
2022/10/23 08:59:27;;;;;;;5.85;1.75;;;;;;;;;;5011356;28;20047;-86
2022/10/23 09:02:17;;;;;;;2.65;1.70;;;;;;;;;;5017438;28;20065;-88
2022/10/23 09:04:46;;;;;;;5.70;1.60;;;;;;;;;;5019120;28;20026;-87
2022/10/23 09:07:19;;;;;;;4.93;1.70;;;;;;;;;;5019273;28;20026;-89
2022/10/23 09:09:50;;;;;;;2.47;1.65;;;;;;;;;;5020012;28;20026;-88
2022/10/23 09:12:23;;;;;;;1.98;1.35;;;;;;;;;;5019799;28;20026;-86
2022/10/23 09:15:13;;;;;;;4.40;1.80;;;;;;;;;;5018161;28;20033;-87
2022/10/23 09:17:43;;;;;;;1.40;1.30;;;;;;;;;;5019715;28;20459;-88
2022/10/23 09:20:22;;;;;;;3.35;1.40;;;;;;;;;;5018079;28;20108;-87
2022/10/23 09:22:49;;;;;;;1.75;1.38;;;;;;;;;;5020640;28;20021;-88
2022/10/23 09:25:20;;;;;;;3.13;1.50;;;;;;;;;;5024471;28;20022;-88
2022/10/23 09:27:52;;;;;;;2.78;1.52;;;;;;;;;;5017055;28;20026;-88
2022/10/23 09:30:34;;;;;;;1.63;1.50;;;;;;;;;;5021955;28;20037;-87
2022/10/23 09:33:12;;;;;;;4.28;1.63;;;;;;;;;;5018757;28;20030;-86
2022/10/23 09:35:38;;;;;;;3.38;1.83;;;;;;;;;;5018801;28;20034;-86
2022/10/23 09:38:03;;;;;;;2.00;1.50;;;;;;;;;;5019295;28;20387;-88
2022/10/23 09:40:40;;;;;;;2.05;1.40;;;;;;;;;;5020189;28;20034;-88
2022/10/23 09:43:14;;;;;;;1.80;1.63;;;;;;;;;;5023132;28;20026;-86
2022/10/23 09:45:41;;;;;;;1.92;1.50;;;;;;;;;;5017684;28;20046;-86
2022/10/23 09:48:14;;;;;;;3.90;1.75;;;;;;;;;;5017512;28;20026;-87
2022/10/23 09:50:55;;;;;;;2.25;1.48;;;;;;;;;;5017914;28;20033;-89
2022/10/23 09:53:37;;;;;;;3.78;1.58;;;;;;;;;;5018463;28;20148;-87
2022/10/23 09:56:24;;;;;;;2.05;1.60;;;;;;;;;;5017626;28;20029;-87
2022/10/23 09:59:04;;;;;;;2.83;1.50;;;;;;;;;;5018986;28;20032;-87
2022/10/23 10:01:35;;;;;;;1.58;1.48;;;;;;;;;;5019312;28;20033;-87
2022/10/23 10:04:00;;;;;;;2.30;1.40;;;;;;;;;;5017883;28;20105;-86
2022/10/23 10:06:28;;;;;;;3.72;1.50;;;;;;;;;;5018858;28;20103;-86
2022/10/23 10:09:00;;;;;;;2.67;1.40;;;;;;;;;;5018741;28;20030;-88
2022/10/23 10:11:26;;;;;;;7.20;1.70;;;;;;;;;;5018459;28;20021;-87
2022/10/23 10:14:03;;;;;;;5.82;1.70;;;;;;;;;;5016396;28;20045;-89
2022/10/23 10:16:50;;;;;;;2.25;1.63;;;;;;;;;;5010130;28;20073;-90
2022/10/23 10:19:55;;;;;;;2.00;1.55;;;;;;;;;;5010413;28;20049;-90
2022/10/23 10:22:23;;;;;;;1.60;1.27;;;;;;;;;;5007502;28;20046;-89
2022/10/23 10:25:00;;;;;;;3.80;1.52;;;;;;;;;;5015400;28;20026;-90
2022/10/23 10:27:53;;;;;;;2.55;1.60;;;;;;;;;;5015262;28;20107;-90
2022/10/23 10:30:21;;;;;;;4.82;1.50;;;;;;;;;;5010088;28;20017;-90
2022/10/23 10:33:13;;;;;;;1.67;1.30;;;;;;;;;;5014856;28;20553;-90
2022/10/23 10:36:13;;;;;;;1.98;1.30;;;;;;;;;;4996719;28;20041;-91
2022/10/23 10:38:50;;;;;;;4.75;1.88;;;;;;;;;;5016884;28;20026;-90
2022/10/23 10:41:46;;;;;;;1.30;1.20;;;;;;;;;;4991986;28;20113;-89
2022/10/23 10:44:42;;;;;;;1.67;1.05;;;;;;;;;;5024746;28;20010;-91
2022/10/23 10:47:21;;;;;;;1.20;1.10;;;;;;;;;;5051852;28;20029;-93
2022/10/23 10:50:15;;;;;;;1.95;1.20;;;;;;;;;;5037008;28;20009;-92
2022/10/23 10:52:46;;;;;;;2.92;1.10;;;;;;;;;;5019445;28;20072;-91
2022/10/23 10:55:21;;;;;;;3.30;1.38;;;;;;;;;;5018495;28;20403;-92
2022/10/23 10:57:54;;;;;;;4.22;1.35;;;;;;;;;;5021730;28;20030;-91
2022/10/23 11:00:21;;;;;;;1.85;1.20;;;;;;;;;;5028492;28;20037;-91
2022/10/23 11:02:58;;;;;;;1.30;1.02;;;;;;;;;;5013561;28;20029;-91
2022/10/23 11:05:47;;;;;;;1.42;1.33;;;;;;;;;;5024491;28;20037;-91
2022/10/23 11:08:23;;;;;;;1.40;1.05;;;;;;;;;;5023484;28;20040;-90
2022/10/23 11:11:04;;;;;;;2.40;1.40;;;;;;;;;;5007422;28;20045;-89
2022/10/23 11:13:36;;;;;;;3.50;1.58;;;;;;;;;;5008072;28;20022;-90
2022/10/23 11:16:12;;;;;;;;;;;;;;;;;;5038889;23;20037;-86
2022/10/23 11:18:41;;;;;;;1.48;1.38;;;;;;;;;;5032863;28;19931;-85
2022/10/23 11:21:34;;;;;;;3.65;1.45;;;;;;;;;;5015403;28;20105;-85
2022/10/23 11:24:08;;;;;;;1.13;1.02;;;;;;;;;;5009887;28;20132;-86
2022/10/23 11:26:55;;;;;;;1.77;1.33;;;;;;;;;;5010448;28;20037;-85
2022/10/23 11:29:34;;;;;;;3.13;1.40;;;;;;;;;;5012564;28;20037;-85
2022/10/23 11:32:18;;;;;;;3.20;1.50;;;;;;;;;;5005578;28;20365;-83
2022/10/23 11:35:04;;;;;;;5.40;1.80;;;;;;;;;;5004518;28;20440;-83
2022/10/23 11:37:30;;;;;;;2.30;1.30;;;;;;;;;;5011685;28;20030;-82
2022/10/23 11:40:01;;;;;;;2.70;1.60;;;;;;;;;;5009595;28;20041;-83
2022/10/23 11:42:47;;;;;;;2.92;1.60;;;;;;;;;;5009166;28;20030;-84
2022/10/23 11:45:28;;;;;;;5.53;1.52;;;;;;;;;;5012644;28;20033;-84
2022/10/23 11:48:02;;;;;;;1.85;1.30;;;;;;;;;;5012929;23;20089;-86
2022/10/23 11:50:48;;;;;;;2.22;1.40;;;;;;;;;;5004395;28;20038;-84
2022/10/23 11:53:31;;;;;;;2.35;1.17;;;;;;;;;;5013792;28;20053;-82
2022/10/23 11:56:05;;;;;;;3.25;1.63;;;;;;;;;;5014251;28;20040;-84
2022/10/23 11:58:55;;;;;;;1.67;1.40;;;;;;;;;;5010159;28;20033;-87
2022/10/23 12:01:23;;;;;;;2.80;1.58;;;;;;;;;;5012157;28;20052;-82
2022/10/23 12:04:00;;;;;;;9.68;2.25;;;;;;;;;;5010785;28;20053;-83
2022/10/23 12:06:37;;;;;;;4.03;2.05;;;;;;;;;;5014290;28;20046;-84
2022/10/23 12:09:06;;;;;;;4.28;2.10;;;;;;;;;;5031974;28;20025;-83
2022/10/23 12:11:45;;;;;;;5.28;1.95;;;;;;;;;;5036031;28;20044;-82
2022/10/23 12:14:38;;;;;;;2.85;1.85;;;;;;;;;;5032403;28;19998;-82
2022/10/23 12:17:21;;;;;;;2.83;1.60;;;;;;;;;;5039370;28;20052;-81
2022/10/23 12:20:15;;;;;;;4.18;1.63;;;;;;;;;;5029442;28;20045;-82
2022/10/23 12:22:50;;;;;;;2.30;1.15;;;;;;;;;;5028221;28;20034;-81
2022/10/23 12:25:27;;;;;;;2.60;1.50;;;;;;;;;;5034354;28;20045;-81
2022/10/23 12:28:05;;;;;;;2.20;1.27;;;;;;;;;;5037622;28;20033;-81
2022/10/23 12:30:42;;;;;;;1.55;1.33;;;;;;;;;;5012911;28;20030;-83
2022/10/23 12:33:18;;;;;;;2.75;1.50;;;;;;;;;;5005328;28;20037;-85
2022/10/23 12:35:50;;;;;;;1.92;1.65;;;;;;;;;;5003977;28;20438;-82
2022/10/23 12:38:24;;;;;;;2.47;1.77;;;;;;;;;;5017096;28;20053;-84
2022/10/23 12:40:53;;;;;;;2.67;1.55;;;;;;;;;;5013525;28;20018;-82
2022/10/23 12:43:33;;;;;;;6.35;2.15;;;;;;;;;;5006434;28;20117;-80
2022/10/23 12:46:19;;;;;;;2.88;1.75;;;;;;;;;;5032134;28;20041;-80
2022/10/23 12:48:49;;;;;;;5.90;1.60;;;;;;;;;;5022094;28;20034;-83
2022/10/23 12:51:25;;;;;;;2.38;1.60;;;;;;;;;;5018034;28;20073;-83
2022/10/23 12:53:50;;;;;;;3.33;1.98;;;;;;;;;;5020267;28;20045;-83
2022/10/23 12:56:16;;;;;;;2.20;1.80;;;;;;;;;;5032996;28;20029;-83
2022/10/23 12:58:52;;;;;;;5.35;1.92;;;;;;;;;;5010180;28;20563;-84
2022/10/23 13:01:32;;;;;;;1.88;1.48;;;;;;;;;;5014487;28;20082;-84
2022/10/23 13:04:05;;;;;;;3.47;1.80;;;;;;;;;;5007027;28;20547;-84
2022/10/23 13:06:31;;;;;;;1.52;1.42;;;;;;;;;;5000365;28;20018;-83
2022/10/23 13:08:57;;;;;;;3.95;1.33;;;;;;;;;;5014937;28;20037;-84
2022/10/23 13:11:24;;;;;;;1.85;1.70;;;;;;;;;;5015502;28;20050;-82
2022/10/23 13:13:50;;;;;;;5.28;1.98;;;;;;;;;;5011033;28;20031;-83
2022/10/23 13:16:18;;;;;;;3.05;1.42;;;;;;;;;;4999915;28;20042;-83
2022/10/23 13:18:44;;;;;;;3.40;1.45;;;;;;;;;;5012209;28;20385;-83
2022/10/23 13:21:20;;;;;;;5.38;1.63;;;;;;;;;;5007614;28;20468;-83
2022/10/23 13:23:45;;;;;;;5.47;1.67;;;;;;;;;;5007720;28;20026;-82
2022/10/23 13:26:41;;;;;;;2.25;1.35;;;;;;;;;;5015435;28;20030;-83
2022/10/23 13:29:20;;;;;;;1.83;1.42;;;;;;;;;;5011987;28;20101;-83
2022/10/23 13:31:46;;;;;;;3.65;1.55;;;;;;;;;;5016195;28;20037;-83
2022/10/23 13:34:28;;;;;;;2.00;1.48;;;;;;;;;;5013855;28;20106;-85
2022/10/23 13:37:19;;;;;;;2.20;1.50;;;;;;;;;;5013669;28;20488;-82
2022/10/23 13:39:45;;;;;;;2.08;1.48;;;;;;;;;;5010666;28;20032;-82
2022/10/23 13:42:14;;;;;;;3.10;1.60;;;;;;;;;;5017077;28;20471;-82
2022/10/23 13:44:40;;;;;;;2.45;1.40;;;;;;;;;;5013939;28;20548;-82
2022/10/23 13:47:11;;;;;;;3.03;1.80;;;;;;;;;;5009879;28;20533;-83
2022/10/23 13:49:36;;;;;;;3.27;1.97;;;;;;;;;;5022019;28;20042;-81
2022/10/23 13:52:02;;;;;;;3.55;1.95;;;;;;;;;;5016551;28;20083;-82
2022/10/23 13:54:28;;;;;;;3.35;1.80;;;;;;;;;;5016684;28;20491;-82
2022/10/23 13:56:54;;;;;;;3.95;2.30;;;;;;;;;;5015340;28;20022;-83
2022/10/23 13:59:20;;;;;;;2.90;1.80;;;;;;;;;;5011809;28;20025;-82
2022/10/23 14:01:47;;;;;;;4.22;1.90;;;;;;;;;;5009089;28;20029;-83
2022/10/23 14:04:14;;;;;;;3.75;2.10;;;;;;;;;;5017119;28;20030;-83
2022/10/23 14:06:40;;;;;;;9.57;2.53;;;;;;;;;;5010218;28;20054;-82
2022/10/23 14:09:10;;;;;;;5.43;2.40;;;;;;;;;;5019257;28;20026;-83
2022/10/23 14:11:35;;;;;;;4.40;2.30;;;;;;;;;;5016219;28;20025;-83
2022/10/23 14:14:01;;;;;;;5.88;2.92;;;;;;;;;;5014767;28;20072;-83
2022/10/23 14:16:27;;;;;;;6.20;2.47;;;;;;;;;;5014680;28;20025;-83
2022/10/23 14:18:53;;;;;;;7.22;2.75;;;;;;;;;;5014977;28;20030;-82
2022/10/23 14:21:20;;;;;;;5.40;2.50;;;;;;;;;;5015802;28;20395;-83
2022/10/23 14:23:46;;;;;;;4.15;2.45;;;;;;;;;;5008629;28;20022;-82
2022/10/23 14:26:14;;;;;;;4.40;2.75;;;;;;;;;;5008457;28;20026;-81
2022/10/23 14:28:40;;;;;;;3.25;1.90;;;;;;;;;;5010688;28;20034;-82
2022/10/23 14:31:09;;;;;;;4.65;1.92;;;;;;;;;;5012773;28;20030;-83
2022/10/23 14:33:34;;;;;;;4.13;2.40;;;;;;;;;;5010767;28;20033;-81
2022/10/23 14:36:00;;;;;;;4.50;2.33;;;;;;;;;;5003600;28;20132;-83
2022/10/23 14:38:25;;;;;;;7.05;2.15;;;;;;;;;;5007129;28;20027;-82
2022/10/23 14:40:51;;;;;;;4.28;2.20;;;;;;;;;;5001622;28;20065;-82
2022/10/23 14:43:16;;;;;;;5.60;2.05;;;;;;;;;;5010522;28;20026;-82
2022/10/23 14:45:42;;;;;;;8.82;2.28;;;;;;;;;;5008930;28;20022;-82
2022/10/23 14:48:07;;;;;;;6.57;2.22;;;;;;;;;;5013070;28;20187;-81
2022/10/23 14:50:35;;;;;;;6.35;2.30;;;;;;;;;;5010798;28;20038;-81
2022/10/23 14:53:00;;;;;;;3.42;1.98;;;;;;;;;;5011810;28;20447;-82
2022/10/23 14:55:26;;;;;;;6.95;2.22;;;;;;;;;;5012165;28;20030;-81
2022/10/23 14:57:55;;;;;;;3.92;2.28;;;;;;;;;;5006995;28;20101;-83
2022/10/23 15:00:22;;;;;;;3.10;2.00;;;;;;;;;;5007203;28;20026;-84
2022/10/23 15:02:47;;;;;;;4.03;2.45;;;;;;;;;;5008693;28;20057;-83
2022/10/23 15:05:12;;;;;;;5.38;2.08;;;;;;;;;;5005933;28;20124;-83
2022/10/23 15:07:39;;;;;;;4.25;1.90;;;;;;;;;;5005529;28;20029;-82